createdAt,value
2018-06-10T00:00:11.178Z,10.53
2018-06-10T00:02:39.460Z,10.43
2018-06-10T00:05:07.739Z,11.43
2018-06-10T00:07:36.035Z,11.28
2018-06-10T00:10:04.322Z,11.18
2018-06-10T00:12:32.609Z,11.28
2018-06-10T00:15:00.859Z,11.65
2018-06-10T00:17:29.158Z,11.15
2018-06-10T00:19:57.420Z,10.90
2018-06-10T00:22:25.701Z,12.03
2018-06-10T00:24:54.009Z,11.30
2018-06-10T00:27:22.294Z,10.75
2018-06-10T00:29:50.563Z,12.15
2018-06-10T00:32:18.847Z,10.95
2018-06-10T00:34:47.134Z,10.30
2018-06-10T00:37:15.434Z,11.48
2018-06-10T00:39:43.785Z,12.15
2018-06-10T00:42:12.075Z,12.05
2018-06-10T00:44:40.331Z,11.40
2018-06-10T00:47:08.639Z,11.88
2018-06-10T00:49:36.882Z,11.93
2018-06-10T00:52:05.191Z,11.75
2018-06-10T00:54:33.470Z,11.88
2018-06-10T00:57:01.726Z,11.50
2018-06-10T00:59:30.030Z,12.18
2018-06-10T01:01:58.315Z,11.95
2018-06-10T01:04:26.621Z,12.23
2018-06-10T01:06:54.870Z,11.70
2018-06-10T01:09:23.173Z,12.23
2018-06-10T01:11:51.501Z,11.93
2018-06-10T01:14:19.798Z,11.75
2018-06-10T01:16:48.056Z,12.95
2018-06-10T01:19:16.471Z,13.25
2018-06-10T01:21:44.727Z,12.53
2018-06-10T01:24:13.055Z,12.82
2018-06-10T01:26:46.583Z,13.05
2018-06-10T01:29:14.866Z,13.43
2018-06-10T01:31:43.122Z,12.78
2018-06-10T01:34:11.411Z,12.85
2018-06-10T01:36:39.676Z,12.70
2018-06-10T01:39:07.958Z,12.65
2018-06-10T01:41:36.206Z,13.28
2018-06-10T01:44:04.503Z,13.43
2018-06-10T01:46:32.753Z,13.13
2018-06-10T01:49:01.051Z,12.53
2018-06-10T01:51:29.294Z,13.20
2018-06-10T01:53:57.593Z,14.05
2018-06-10T01:56:25.855Z,13.50
2018-06-10T01:58:54.228Z,14.73
2018-06-10T02:01:22.517Z,14.30
2018-06-10T02:03:50.826Z,14.58
2018-06-10T02:06:19.102Z,15.85
2018-06-10T02:08:47.453Z,15.30
2018-06-10T02:11:15.698Z,14.57
2018-06-10T02:13:43.987Z,15.03
2018-06-10T02:16:12.366Z,14.63
2018-06-10T02:18:40.670Z,14.38
2018-06-10T02:21:08.917Z,14.95
2018-06-10T02:23:37.255Z,15.03
2018-06-10T02:26:05.563Z,15.55
2018-06-10T02:28:33.859Z,15.83
2018-06-10T02:31:02.110Z,16.32
2018-06-10T02:33:30.366Z,16.93
2018-06-10T02:35:58.654Z,15.75
2018-06-10T02:38:26.960Z,15.85
2018-06-10T02:40:55.283Z,16.65
2018-06-10T02:43:23.566Z,17.27
2018-06-10T02:45:51.978Z,18.90
2018-06-10T02:48:20.239Z,17.02
2018-06-10T02:50:48.608Z,16.42
2018-06-10T02:53:16.909Z,17.77
2018-06-10T02:55:45.242Z,17.73
2018-06-10T02:58:13.497Z,17.60
2018-06-10T03:00:41.818Z,17.98
2018-06-10T03:03:10.110Z,18.60
2018-06-10T03:05:38.398Z,19.42
2018-06-10T03:08:06.684Z,18.48
2018-06-10T03:10:34.974Z,18.75
2018-06-10T03:13:03.543Z,19.07
2018-06-10T03:15:31.866Z,18.75
2018-06-10T03:18:00.131Z,19.57
2018-06-10T03:20:28.491Z,18.05
2018-06-10T03:22:56.750Z,19.42
2018-06-10T03:25:25.090Z,19.37
2018-06-10T03:27:53.362Z,19.40
2018-06-10T03:30:21.669Z,18.80
2018-06-10T03:32:49.938Z,19.55
2018-06-10T03:35:18.263Z,18.70
2018-06-10T03:37:46.535Z,18.07
2018-06-10T03:40:14.849Z,19.20
2018-06-10T03:42:43.106Z,18.87
2018-06-10T03:45:11.402Z,19.80
2018-06-10T03:47:39.653Z,18.92
2018-06-10T03:50:07.952Z,19.73
2018-06-10T03:52:36.651Z,19.00
2018-06-10T03:55:05.039Z,20.70
2018-06-10T03:57:33.640Z,20.85
2018-06-10T04:00:01.975Z,21.48
2018-06-10T04:02:30.274Z,20.75
2018-06-10T04:04:58.577Z,21.62
2018-06-10T04:07:26.859Z,23.77
2018-06-10T04:09:55.190Z,21.68
2018-06-10T04:12:23.441Z,21.85
2018-06-10T04:14:51.706Z,21.60
2018-06-10T04:17:20.130Z,21.37
2018-06-10T04:19:48.382Z,21.37
2018-06-10T04:22:16.670Z,20.23
2018-06-10T04:24:44.937Z,23.12
2018-06-10T04:27:13.286Z,21.02
2018-06-10T04:29:41.577Z,22.27
2018-06-10T04:32:09.867Z,21.68
2018-06-10T04:34:38.109Z,22.98
2018-06-10T04:37:06.400Z,23.25
2018-06-10T04:39:33.708Z,21.05
2018-06-10T04:42:02.005Z,24.47
2018-06-10T04:44:30.258Z,21.93
2018-06-10T04:46:58.602Z,23.22
2018-06-10T04:49:26.863Z,22.65
2018-06-10T04:51:55.175Z,21.02
2018-06-10T04:54:23.442Z,22.10
2018-06-10T04:56:51.727Z,21.15
2018-06-10T04:59:19.973Z,21.85
2018-06-10T05:01:48.262Z,20.62
2018-06-10T05:04:16.505Z,20.25
2018-06-10T05:06:44.802Z,22.42
2018-06-10T05:09:13.056Z,20.82
2018-06-10T05:11:41.346Z,19.98
2018-06-10T05:14:09.611Z,20.95
2018-06-10T05:16:37.925Z,21.12
2018-06-10T05:19:06.176Z,21.27
2018-06-10T05:21:34.492Z,22.05
2018-06-10T05:24:02.837Z,21.75
2018-06-10T05:26:31.235Z,23.20
2018-06-10T05:29:02.541Z,23.55
2018-06-10T05:31:31.286Z,21.95
2018-06-10T05:33:59.546Z,22.27
2018-06-10T05:36:27.894Z,22.60
2018-06-10T05:38:56.254Z,24.55
2018-06-10T05:41:24.551Z,22.02
2018-06-10T05:43:52.800Z,23.05
2018-06-10T05:46:21.110Z,23.98
2018-06-10T05:48:49.425Z,22.77
2018-06-10T05:51:17.777Z,24.02
2018-06-10T05:53:46.055Z,24.63
2018-06-10T05:56:14.314Z,25.20
2018-06-10T05:58:42.860Z,23.62
2018-06-10T06:01:11.126Z,26.33
2018-06-10T06:03:39.422Z,25.17
2018-06-10T06:06:07.694Z,24.23
2018-06-10T06:08:36.018Z,25.77
2018-06-10T06:11:04.289Z,24.10
2018-06-10T06:13:32.590Z,26.85
2018-06-10T06:16:00.881Z,25.12
2018-06-10T06:18:29.230Z,25.32
2018-06-10T06:20:57.552Z,25.90
2018-06-10T06:23:25.859Z,25.77
2018-06-10T06:25:54.186Z,24.55
2018-06-10T06:28:22.493Z,24.72
2018-06-10T06:30:50.755Z,25.85
2018-06-10T06:33:19.474Z,25.72
2018-06-10T06:35:47.710Z,25.15
2018-06-10T06:38:16.007Z,24.18
2018-06-10T06:40:44.258Z,25.68
2018-06-10T06:43:12.585Z,25.68
2018-06-10T06:45:40.927Z,26.12
2018-06-10T06:48:09.485Z,24.77
2018-06-10T06:50:37.980Z,25.15
2018-06-10T06:53:06.355Z,25.65
2018-06-10T06:55:34.730Z,24.85
2018-06-10T06:58:03.329Z,26.27
2018-06-10T07:00:31.721Z,24.32
2018-06-10T07:03:00.138Z,25.23
2018-06-10T07:05:28.434Z,26.68
2018-06-10T07:07:56.858Z,25.80
2018-06-10T07:10:25.195Z,24.65
2018-06-10T07:12:53.529Z,24.70
2018-06-10T07:15:21.778Z,24.20
2018-06-10T07:17:50.068Z,24.15
2018-06-10T07:20:18.858Z,25.55
2018-06-10T07:22:47.301Z,25.57
2018-06-10T07:25:15.560Z,25.45
2018-06-10T07:27:44.011Z,24.72
2018-06-10T07:30:12.394Z,24.18
2018-06-10T07:32:40.700Z,24.72
2018-06-10T07:35:09.021Z,24.20
2018-06-10T07:37:37.266Z,25.23
2018-06-10T07:40:05.575Z,25.25
2018-06-10T07:42:33.898Z,24.23
2018-06-10T07:45:02.224Z,24.40
2018-06-10T07:47:30.643Z,24.07
2018-06-10T07:49:58.997Z,23.12
2018-06-10T07:52:27.312Z,21.82
2018-06-10T07:54:55.609Z,23.05
2018-06-10T07:57:23.857Z,21.85
2018-06-10T07:59:52.325Z,22.90
2018-06-10T08:02:20.581Z,22.70
2018-06-10T08:04:48.955Z,22.22
2018-06-10T08:07:17.534Z,21.30
2018-06-10T08:09:45.852Z,20.85
2018-06-10T08:12:14.136Z,21.77
2018-06-10T08:14:42.446Z,21.00
2018-06-10T08:17:10.711Z,21.20
2018-06-10T08:19:39.103Z,21.30
2018-06-10T08:22:07.428Z,21.23
2018-06-10T08:24:35.719Z,20.85
2018-06-10T08:27:04.022Z,19.98
2018-06-10T08:29:32.328Z,21.40
2018-06-10T08:32:00.694Z,19.15
2018-06-10T08:34:29.061Z,20.08
2018-06-10T08:36:57.334Z,19.57
2018-06-10T08:39:25.634Z,18.57
2018-06-10T08:41:53.895Z,18.48
2018-06-10T08:44:22.218Z,17.77
2018-06-10T08:46:50.534Z,19.00
2018-06-10T08:49:18.836Z,17.40
2018-06-10T08:51:48.186Z,18.05
2018-06-10T08:54:16.530Z,17.40
2018-06-10T08:56:44.794Z,18.73
2018-06-10T08:59:13.146Z,19.57
2018-06-10T09:01:41.483Z,19.98
2018-06-10T09:04:09.779Z,18.48
2018-06-10T09:06:38.049Z,18.32
2018-06-10T09:09:08.952Z,18.15
2018-06-10T09:11:37.777Z,18.42
2018-06-10T09:14:06.074Z,18.00
2018-06-10T09:16:34.482Z,18.40
2018-06-10T09:19:02.802Z,19.48
2018-06-10T09:21:31.422Z,18.73
2018-06-10T09:24:00.055Z,18.60
2018-06-10T09:26:28.342Z,18.73
2018-06-10T09:28:56.615Z,18.30
2018-06-10T09:31:24.915Z,20.80
2018-06-10T09:33:54.658Z,19.60
2018-06-10T09:36:23.494Z,21.48
2018-06-10T09:38:52.050Z,19.67
2018-06-10T09:41:20.346Z,19.85
2018-06-10T09:43:48.725Z,18.77
2018-06-10T09:46:17.158Z,18.57
2018-06-10T09:48:45.530Z,17.95
2018-06-10T09:51:13.958Z,19.85
2018-06-10T09:53:42.210Z,18.15
2018-06-10T09:56:10.506Z,19.65
2018-06-10T09:58:38.902Z,19.48
2018-06-10T10:01:07.204Z,20.15
2018-06-10T10:03:35.552Z,19.55
2018-06-10T10:06:04.168Z,19.80
2018-06-10T10:08:32.498Z,19.48
2018-06-10T10:11:00.813Z,21.27
2018-06-10T10:13:29.074Z,20.12
2018-06-10T10:15:57.430Z,22.27
2018-06-10T10:18:25.712Z,17.23
2018-06-10T10:20:54.032Z,17.52
2018-06-10T10:23:22.295Z,16.82
2018-06-10T10:25:50.579Z,17.02
2018-06-10T10:28:18.883Z,16.10
2018-06-10T10:30:47.155Z,17.12
2018-06-10T10:33:15.446Z,19.50
2018-06-10T10:35:43.901Z,17.50
2018-06-10T10:38:12.270Z,16.27
2018-06-10T10:40:40.632Z,15.93
2018-06-10T10:43:08.973Z,15.93
2018-06-10T10:45:37.288Z,15.32
2018-06-10T10:48:05.618Z,15.48
2018-06-10T10:50:34.130Z,15.53
2018-06-10T10:53:02.427Z,15.72
2018-06-10T10:55:30.746Z,14.65
2018-06-10T10:57:59.062Z,15.00
2018-06-10T11:00:27.427Z,15.48
2018-06-10T11:02:55.781Z,14.45
2018-06-10T11:05:24.080Z,14.58
2018-06-10T11:07:53.127Z,15.90
2018-06-10T11:10:21.432Z,15.78
2018-06-10T11:12:49.842Z,16.40
2018-06-10T11:15:18.263Z,15.50
2018-06-10T11:17:46.623Z,15.95
2018-06-10T11:20:15.050Z,15.20
2018-06-10T11:22:43.339Z,14.90
2018-06-10T11:25:11.779Z,14.95
2018-06-10T11:27:40.777Z,15.48
2018-06-10T11:30:09.330Z,15.28
2018-06-10T11:32:37.612Z,15.15
2018-06-10T11:35:05.922Z,14.47
2018-06-10T11:37:34.258Z,15.03
2018-06-10T11:40:02.664Z,15.70
2018-06-10T11:42:31.284Z,13.40
2018-06-10T11:45:00.327Z,13.20
2018-06-10T11:47:28.657Z,15.08
2018-06-10T11:49:56.917Z,14.35
2018-06-10T11:52:25.230Z,15.68
2018-06-10T11:54:53.751Z,16.97
2018-06-10T11:57:22.654Z,16.75
2018-06-10T11:59:50.938Z,17.45
2018-06-10T12:02:19.259Z,17.87
2018-06-10T12:04:47.586Z,18.05
2018-06-10T12:07:15.926Z,18.20
2018-06-10T12:09:44.258Z,16.70
2018-06-10T12:12:12.624Z,16.55
2018-06-10T12:14:40.962Z,17.00
2018-06-10T12:17:09.336Z,17.07
2018-06-10T12:19:37.635Z,17.20
2018-06-10T12:22:05.934Z,17.52
2018-06-10T12:24:34.306Z,16.67
2018-06-10T12:27:02.679Z,16.65
2018-06-10T12:29:30.981Z,17.98
2018-06-10T12:31:59.720Z,17.55
2018-06-10T12:34:28.361Z,17.73
2018-06-10T12:37:00.877Z,18.48
2018-06-10T12:39:38.465Z,17.42
2018-06-10T12:43:27.568Z,17.55
2018-06-10T12:48:53.515Z,16.57
2018-06-10T12:51:31.357Z,17.50
2018-06-10T12:54:01.214Z,18.10
2018-06-10T12:56:39.013Z,17.40
2018-06-10T12:59:09.837Z,16.97
2018-06-10T13:01:38.392Z,17.25
2018-06-10T13:04:07.076Z,17.80
2018-06-10T13:06:35.818Z,16.15
2018-06-10T13:09:06.795Z,15.30
2018-06-10T13:11:35.542Z,15.23
2018-06-10T13:14:06.481Z,14.68
2018-06-10T13:16:37.163Z,16.60
2018-06-10T13:19:06.918Z,15.23
2018-06-10T13:21:42.570Z,15.85
2018-06-10T13:24:12.366Z,15.90
2018-06-10T13:26:44.640Z,14.45
2018-06-10T13:29:18.338Z,15.58
2018-06-10T13:31:47.130Z,13.78
2018-06-10T13:34:18.897Z,15.43
2018-06-10T13:36:58.204Z,14.18
2018-06-10T13:39:31.260Z,14.23
2018-06-10T13:42:12.749Z,13.95
2018-06-10T13:44:45.730Z,15.15
2018-06-10T13:50:05.800Z,13.85
2018-06-10T13:52:35.922Z,13.95
2018-06-10T13:55:16.858Z,13.90
2018-06-10T13:57:45.341Z,14.75
2018-06-10T14:00:24.453Z,14.30
2018-06-10T14:02:53.776Z,13.20
2018-06-10T14:05:23.432Z,13.00
2018-06-10T14:08:14.297Z,13.72
2018-06-10T14:10:45.505Z,12.70
2018-06-10T14:13:14.428Z,11.73
2018-06-10T14:16:22.472Z,13.45
2018-06-10T14:18:52.382Z,12.78
2018-06-10T14:21:21.875Z,13.00
2018-06-10T14:23:59.852Z,13.28
2018-06-10T14:26:48.626Z,13.32
2018-06-10T14:29:17.744Z,12.98
2018-06-10T14:31:53.338Z,12.28
2018-06-10T14:34:23.872Z,13.13
2018-06-10T14:36:53.363Z,12.33
2018-06-10T14:39:30.970Z,12.68
2018-06-10T14:42:02.232Z,12.75
2018-06-10T14:44:36.312Z,12.82
2018-06-10T14:47:10.268Z,13.08
2018-06-10T14:49:43.339Z,12.18
2018-06-10T14:52:15.196Z,12.68
2018-06-10T14:54:47.885Z,11.63
2018-06-10T14:57:27.150Z,12.23
2018-06-10T14:59:59.246Z,12.95
2018-06-10T15:02:28.306Z,12.53
2018-06-10T15:04:59.113Z,13.85
2018-06-10T15:07:28.160Z,12.90
2018-06-10T15:10:06.011Z,12.88
2018-06-10T15:12:35.566Z,13.45
2018-06-10T15:15:06.216Z,15.38
2018-06-10T15:17:37.483Z,13.65
2018-06-10T15:20:19.140Z,13.28
2018-06-10T15:22:54.822Z,13.00
2018-06-10T15:25:26.688Z,12.13
2018-06-10T15:27:55.347Z,15.83
2018-06-10T15:30:23.931Z,13.28
2018-06-10T15:32:53.787Z,13.08
2018-06-10T15:38:30.202Z,11.73
2018-06-10T15:41:10.365Z,12.70
2018-06-10T15:46:36.517Z,13.20
2018-06-10T15:49:05.362Z,13.53
2018-06-10T15:51:35.654Z,13.18
2018-06-10T15:54:05.682Z,15.18
2018-06-10T15:56:38.678Z,13.00
2018-06-10T15:59:14.120Z,15.43
2018-06-10T16:02:03.759Z,16.20
2018-06-10T16:04:36.655Z,14.47
2018-06-10T16:07:10.924Z,14.70
2018-06-10T16:09:40.792Z,14.80
2018-06-10T16:12:09.966Z,13.70
2018-06-10T16:14:43.388Z,14.15
2018-06-10T16:17:12.456Z,14.55
2018-06-10T16:19:47.520Z,14.38
2018-06-10T16:22:17.299Z,14.00
2018-06-10T16:24:45.826Z,14.10
2018-06-10T16:27:14.863Z,14.83
2018-06-10T16:29:44.107Z,14.45
2018-06-10T16:32:14.563Z,13.95
2018-06-10T16:34:43.859Z,14.13
2018-06-10T16:37:13.022Z,14.73
2018-06-10T16:39:47.060Z,15.15
2018-06-10T16:42:17.351Z,14.50
2018-06-10T16:44:47.066Z,13.68
2018-06-10T16:47:17.161Z,13.78
2018-06-10T16:49:47.418Z,13.13
2018-06-10T16:52:16.099Z,14.58
2018-06-10T16:54:46.948Z,13.28
2018-06-10T16:57:16.106Z,13.48
2018-06-10T16:59:48.637Z,12.98
2018-06-10T17:02:17.365Z,13.00
2018-06-10T17:04:47.150Z,12.80
2018-06-10T17:07:24.065Z,13.30
2018-06-10T17:12:29.578Z,13.72
2018-06-10T17:14:59.715Z,13.60
2018-06-10T17:17:31.826Z,13.00
2018-06-10T17:20:01.262Z,12.50
2018-06-10T17:22:35.260Z,12.47
2018-06-10T17:25:07.503Z,12.82
2018-06-10T17:27:42.374Z,12.93
2018-06-10T17:30:32.930Z,12.10
2018-06-10T17:33:05.315Z,13.65
2018-06-10T17:35:47.661Z,13.15
2018-06-10T17:38:16.860Z,13.43
2018-06-10T17:40:46.104Z,13.22
2018-06-10T17:43:17.797Z,12.98
2018-06-10T17:45:57.909Z,14.03
2018-06-10T17:48:50.544Z,13.90
2018-06-10T17:51:22.323Z,13.10
2018-06-10T17:54:21.804Z,14.35
2018-06-10T17:56:54.567Z,13.80
2018-06-10T18:02:11.590Z,15.20
2018-06-10T18:04:47.789Z,15.23
2018-06-10T18:07:24.060Z,14.55
2018-06-10T18:10:04.372Z,14.75
2018-06-10T18:12:42.849Z,15.65
2018-06-10T18:15:21.784Z,15.18
2018-06-10T18:17:52.685Z,14.95
2018-06-10T18:20:22.654Z,14.83
2018-06-10T18:22:52.411Z,15.85
2018-06-10T18:25:21.316Z,17.17
2018-06-10T18:27:55.154Z,15.85
2018-06-10T18:30:28.629Z,17.73
2018-06-10T18:32:57.389Z,18.32
2018-06-10T18:35:27.558Z,17.82
2018-06-10T18:37:56.641Z,18.12
2018-06-10T18:40:35.265Z,16.95
2018-06-10T18:43:04.905Z,17.25
2018-06-10T18:45:36.754Z,18.62
2018-06-10T18:48:08.792Z,21.77
2018-06-10T18:50:39.533Z,21.17
2018-06-10T18:53:20.372Z,23.00
2018-06-10T18:55:58.735Z,21.62
2018-06-10T18:58:32.463Z,21.33
2018-06-10T19:01:07.347Z,22.13
2018-06-10T19:03:40.107Z,25.08
2018-06-10T19:06:15.277Z,24.67
2018-06-10T19:08:46.407Z,23.60
2018-06-10T19:11:18.153Z,24.57
2018-06-10T19:13:58.129Z,23.32
2018-06-10T19:19:21.676Z,26.05
2018-06-10T19:22:03.669Z,26.52
2018-06-10T19:24:39.400Z,24.55
2018-06-10T19:27:11.191Z,24.20
2018-06-10T19:30:29.563Z,26.93
2018-06-10T19:33:55.783Z,26.40
2018-06-10T19:36:27.763Z,25.92
2018-06-10T19:39:14.246Z,25.17
2018-06-10T19:42:00.144Z,24.25
2018-06-10T19:44:41.212Z,24.45
2018-06-10T19:47:13.625Z,26.12
2018-06-10T19:52:33.769Z,24.32
2018-06-10T19:55:06.968Z,28.07
2018-06-10T19:57:36.990Z,25.30
2018-06-10T20:00:06.101Z,26.10
2018-06-10T20:02:37.712Z,26.02
2018-06-10T20:05:09.977Z,25.27
2018-06-10T20:07:38.716Z,25.60
2018-06-10T20:10:07.994Z,25.33
2018-06-10T20:12:37.027Z,25.70
2018-06-10T20:15:16.093Z,25.77
2018-06-10T20:18:16.286Z,24.93
2018-06-10T20:20:46.248Z,24.03
2018-06-10T20:23:14.884Z,25.20
2018-06-10T20:25:45.064Z,25.10
2018-06-10T20:28:20.281Z,26.33
2018-06-10T20:30:49.673Z,25.03
2018-06-10T20:33:32.899Z,25.07
2018-06-10T20:36:02.720Z,26.40
2018-06-10T20:38:36.849Z,26.70
2018-06-10T20:41:06.742Z,26.97
2018-06-10T20:43:40.679Z,26.23
2018-06-10T20:46:09.907Z,27.02
2018-06-10T20:48:40.265Z,27.53
2018-06-10T20:51:21.487Z,27.87
2018-06-10T20:56:40.217Z,28.80
2018-06-10T20:59:08.915Z,28.60
2018-06-10T21:01:47.059Z,27.20
2018-06-10T21:04:26.822Z,29.57
2018-06-10T21:06:57.433Z,28.50
2018-06-10T21:09:39.191Z,28.07
2018-06-10T21:12:32.258Z,29.53
2018-06-10T21:18:35.109Z,27.33
2018-06-10T21:24:04.533Z,31.90
2018-06-10T21:26:35.622Z,32.43
2018-06-10T21:29:08.346Z,30.97
2018-06-10T21:31:38.870Z,32.30
2018-06-10T21:34:08.747Z,31.60
2018-06-10T21:36:39.487Z,33.53
2018-06-10T21:39:10.958Z,32.27
2018-06-10T21:41:41.107Z,32.90
2018-06-10T21:44:11.315Z,34.77
2018-06-10T21:46:40.225Z,33.33
2018-06-10T21:49:09.407Z,33.20
2018-06-10T21:51:41.830Z,33.63
2018-06-10T21:54:13.325Z,34.37
2018-06-10T21:56:45.067Z,32.53
2018-06-10T21:59:14.642Z,34.03
2018-06-10T22:01:44.492Z,33.87
2018-06-10T22:04:13.231Z,34.07
2018-06-10T22:06:42.739Z,33.57
2018-06-10T22:09:12.149Z,34.20
2018-06-10T22:11:41.557Z,34.87
2018-06-10T22:14:11.066Z,36.03
2018-06-10T22:16:39.967Z,34.13
2018-06-10T22:19:09.196Z,34.17
2018-06-10T22:24:20.766Z,35.83
2018-06-10T22:26:49.282Z,34.43
2018-06-10T22:29:18.846Z,37.70
2018-06-10T22:31:56.902Z,36.93
2018-06-10T22:34:26.376Z,35.77
2018-06-10T22:36:56.585Z,35.97
2018-06-10T22:39:26.322Z,35.07
2018-06-10T22:42:19.900Z,35.33
2018-06-10T22:44:48.532Z,35.67
2018-06-10T22:47:17.710Z,37.60
2018-06-10T22:49:46.469Z,38.53
2018-06-10T22:52:14.865Z,38.07
2018-06-10T22:54:46.867Z,38.50
2018-06-10T22:57:27.844Z,38.00
2018-06-10T22:59:58.357Z,36.63
2018-06-10T23:02:29.135Z,35.60
2018-06-10T23:04:57.945Z,38.37
2018-06-10T23:07:26.366Z,42.80
2018-06-10T23:09:54.735Z,41.97
2018-06-10T23:12:23.292Z,41.00
2018-06-10T23:14:52.623Z,44.73
2018-06-10T23:17:21.133Z,44.03
2018-06-10T23:19:49.514Z,43.90
2018-06-10T23:22:17.985Z,42.13
2018-06-10T23:24:50.033Z,42.23
2018-06-10T23:27:25.187Z,41.50
2018-06-10T23:29:53.571Z,43.20
2018-06-10T23:32:21.987Z,41.37
2018-06-10T23:34:50.663Z,42.47
2018-06-10T23:37:19.180Z,43.77
2018-06-10T23:39:48.079Z,44.60
2018-06-10T23:42:16.461Z,42.73
2018-06-10T23:44:44.975Z,42.27
2018-06-10T23:47:13.523Z,44.43
2018-06-10T23:49:42.849Z,42.80
2018-06-10T23:52:11.819Z,44.57
2018-06-10T23:54:40.257Z,41.43
2018-06-10T23:57:08.677Z,41.27
2018-06-10T23:59:38.138Z,44.13
